sensor_id;sensor_type;location;lat;lon;timestamp;P1;durP1;ratioP1;P2;durP2;ratioP2
17228;SDS011;8731;50.364;8.958;2023-08-30T00:01:50;4.00;;;1.53;;
17228;SDS011;8731;50.364;8.958;2023-08-30T00:06:13;2.27;;;1.70;;
17228;SDS011;8731;50.364;8.958;2023-08-30T00:10:36;2.30;;;1.63;;
17228;SDS011;8731;50.364;8.958;2023-08-30T00:14:58;2.43;;;1.63;;
17228;SDS011;8731;50.364;8.958;2023-08-30T00:19:22;3.50;;;1.53;;
17228;SDS011;8731;50.364;8.958;2023-08-30T00:23:46;2.00;;;1.80;;
17228;SDS011;8731;50.364;8.958;2023-08-30T00:28:09;2.37;;;1.67;;
17228;SDS011;8731;50.364;8.958;2023-08-30T00:32:31;2.10;;;1.73;;
17228;SDS011;8731;50.364;8.958;2023-08-30T00:36:55;3.50;;;2.40;;
17228;SDS011;8731;50.364;8.958;2023-08-30T00:41:17;2.67;;;2.10;;
17228;SDS011;8731;50.364;8.958;2023-08-30T00:45:40;2.87;;;2.47;;
17228;SDS011;8731;50.364;8.958;2023-08-30T00:50:05;4.30;;;2.13;;
17228;SDS011;8731;50.364;8.958;2023-08-30T00:54:30;3.57;;;2.30;;
17228;SDS011;8731;50.364;8.958;2023-08-30T00:58:54;2.57;;;2.00;;
17228;SDS011;8731;50.364;8.958;2023-08-30T01:03:17;2.23;;;1.83;;
17228;SDS011;8731;50.364;8.958;2023-08-30T01:07:40;2.00;;;1.80;;
17228;SDS011;8731;50.364;8.958;2023-08-30T01:12:07;4.40;;;2.27;;
17228;SDS011;8731;50.364;8.958;2023-08-30T01:16:38;6.67;;;3.00;;
17228;SDS011;8731;50.364;8.958;2023-08-30T01:21:02;3.63;;;2.93;;
17228;SDS011;8731;50.364;8.958;2023-08-30T01:25:37;3.00;;;2.50;;
17228;SDS011;8731;50.364;8.958;2023-08-30T01:30:16;3.10;;;2.53;;
17228;SDS011;8731;50.364;8.958;2023-08-30T01:34:41;2.57;;;2.37;;
17228;SDS011;8731;50.364;8.958;2023-08-30T01:39:07;3.57;;;2.20;;
17228;SDS011;8731;50.364;8.958;2023-08-30T01:43:31;3.57;;;2.70;;
17228;SDS011;8731;50.364;8.958;2023-08-30T01:48:00;2.83;;;2.63;;
17228;SDS011;8731;50.364;8.958;2023-08-30T01:52:23;3.10;;;2.57;;
17228;SDS011;8731;50.364;8.958;2023-08-30T01:56:48;3.73;;;2.37;;
17228;SDS011;8731;50.364;8.958;2023-08-30T02:01:10;4.87;;;3.10;;
17228;SDS011;8731;50.364;8.958;2023-08-30T02:05:34;4.07;;;2.90;;
17228;SDS011;8731;50.364;8.958;2023-08-30T02:10:06;3.57;;;2.90;;
17228;SDS011;8731;50.364;8.958;2023-08-30T02:14:31;4.37;;;3.10;;
17228;SDS011;8731;50.364;8.958;2023-08-30T02:18:55;3.23;;;2.83;;
17228;SDS011;8731;50.364;8.958;2023-08-30T02:23:19;3.27;;;2.67;;
17228;SDS011;8731;50.364;8.958;2023-08-30T02:27:45;3.13;;;2.70;;
17228;SDS011;8731;50.364;8.958;2023-08-30T02:32:08;5.03;;;3.00;;
17228;SDS011;8731;50.364;8.958;2023-08-30T02:36:30;3.47;;;2.57;;
17228;SDS011;8731;50.364;8.958;2023-08-30T02:40:54;3.10;;;2.50;;
17228;SDS011;8731;50.364;8.958;2023-08-30T02:45:17;3.67;;;2.90;;
17228;SDS011;8731;50.364;8.958;2023-08-30T02:49:39;2.97;;;2.57;;
17228;SDS011;8731;50.364;8.958;2023-08-30T02:54:01;3.47;;;2.70;;
17228;SDS011;8731;50.364;8.958;2023-08-30T02:58:26;3.00;;;2.73;;
17228;SDS011;8731;50.364;8.958;2023-08-30T03:02:53;5.67;;;2.90;;
17228;SDS011;8731;50.364;8.958;2023-08-30T03:07:15;3.67;;;2.20;;
17228;SDS011;8731;50.364;8.958;2023-08-30T03:11:38;4.47;;;2.70;;
17228;SDS011;8731;50.364;8.958;2023-08-30T03:16:02;5.33;;;3.43;;
17228;SDS011;8731;50.364;8.958;2023-08-30T03:20:31;5.80;;;3.50;;
17228;SDS011;8731;50.364;8.958;2023-08-30T03:24:53;3.93;;;2.73;;
17228;SDS011;8731;50.364;8.958;2023-08-30T03:29:17;3.33;;;2.80;;
17228;SDS011;8731;50.364;8.958;2023-08-30T03:33:43;5.63;;;3.23;;
17228;SDS011;8731;50.364;8.958;2023-08-30T03:38:07;3.13;;;2.80;;
17228;SDS011;8731;50.364;8.958;2023-08-30T03:42:30;3.10;;;2.47;;
17228;SDS011;8731;50.364;8.958;2023-08-30T03:46:53;4.77;;;2.60;;
17228;SDS011;8731;50.364;8.958;2023-08-30T03:51:18;5.30;;;2.53;;
17228;SDS011;8731;50.364;8.958;2023-08-30T03:55:42;4.90;;;2.90;;
17228;SDS011;8731;50.364;8.958;2023-08-30T04:00:05;3.17;;;2.63;;
17228;SDS011;8731;50.364;8.958;2023-08-30T04:04:34;4.23;;;2.63;;
17228;SDS011;8731;50.364;8.958;2023-08-30T04:08:58;5.43;;;2.67;;
17228;SDS011;8731;50.364;8.958;2023-08-30T04:13:20;4.57;;;2.80;;
17228;SDS011;8731;50.364;8.958;2023-08-30T04:17:43;6.27;;;2.57;;
17228;SDS011;8731;50.364;8.958;2023-08-30T04:22:05;4.07;;;2.50;;
17228;SDS011;8731;50.364;8.958;2023-08-30T04:26:30;4.10;;;2.77;;
17228;SDS011;8731;50.364;8.958;2023-08-30T04:30:52;5.57;;;3.30;;
17228;SDS011;8731;50.364;8.958;2023-08-30T04:35:15;4.70;;;3.30;;
17228;SDS011;8731;50.364;8.958;2023-08-30T04:39:38;5.30;;;4.00;;
17228;SDS011;8731;50.364;8.958;2023-08-30T04:44:03;7.20;;;3.63;;
17228;SDS011;8731;50.364;8.958;2023-08-30T04:48:26;3.73;;;3.33;;
17228;SDS011;8731;50.364;8.958;2023-08-30T04:52:49;4.80;;;3.10;;
17228;SDS011;8731;50.364;8.958;2023-08-30T04:57:11;4.83;;;3.50;;
17228;SDS011;8731;50.364;8.958;2023-08-30T05:01:38;4.67;;;3.53;;
17228;SDS011;8731;50.364;8.958;2023-08-30T05:06:04;3.80;;;3.30;;
17228;SDS011;8731;50.364;8.958;2023-08-30T05:10:27;5.40;;;3.43;;
17228;SDS011;8731;50.364;8.958;2023-08-30T05:14:49;6.60;;;4.07;;
17228;SDS011;8731;50.364;8.958;2023-08-30T05:19:13;7.03;;;3.80;;
17228;SDS011;8731;50.364;8.958;2023-08-30T05:23:37;5.87;;;3.97;;
17228;SDS011;8731;50.364;8.958;2023-08-30T05:28:02;6.87;;;4.30;;
17228;SDS011;8731;50.364;8.958;2023-08-30T05:32:25;6.20;;;4.43;;
17228;SDS011;8731;50.364;8.958;2023-08-30T05:37:24;8.90;;;4.13;;
17228;SDS011;8731;50.364;8.958;2023-08-30T05:41:55;4.70;;;4.20;;
17228;SDS011;8731;50.364;8.958;2023-08-30T05:46:18;10.33;;;9.33;;
17228;SDS011;8731;50.364;8.958;2023-08-30T05:50:40;5.37;;;4.97;;
17228;SDS011;8731;50.364;8.958;2023-08-30T05:55:09;6.47;;;4.67;;
17228;SDS011;8731;50.364;8.958;2023-08-30T05:59:32;4.57;;;4.10;;
17228;SDS011;8731;50.364;8.958;2023-08-30T06:03:55;4.30;;;3.90;;
17228;SDS011;8731;50.364;8.958;2023-08-30T06:08:18;5.63;;;4.80;;
17228;SDS011;8731;50.364;8.958;2023-08-30T06:12:42;7.83;;;4.73;;
17228;SDS011;8731;50.364;8.958;2023-08-30T06:17:04;5.70;;;4.37;;
17228;SDS011;8731;50.364;8.958;2023-08-30T06:21:27;6.43;;;4.37;;
17228;SDS011;8731;50.364;8.958;2023-08-30T06:25:53;5.27;;;4.57;;
17228;SDS011;8731;50.364;8.958;2023-08-30T06:30:18;4.87;;;4.30;;
17228;SDS011;8731;50.364;8.958;2023-08-30T06:34:43;6.70;;;5.07;;
17228;SDS011;8731;50.364;8.958;2023-08-30T06:39:05;5.53;;;3.93;;
17228;SDS011;8731;50.364;8.958;2023-08-30T06:43:28;6.37;;;4.90;;
17228;SDS011;8731;50.364;8.958;2023-08-30T06:47:52;5.50;;;4.83;;
17228;SDS011;8731;50.364;8.958;2023-08-30T06:52:14;5.20;;;4.63;;
17228;SDS011;8731;50.364;8.958;2023-08-30T06:56:37;4.77;;;4.33;;
17228;SDS011;8731;50.364;8.958;2023-08-30T07:01:01;5.00;;;4.60;;
17228;SDS011;8731;50.364;8.958;2023-08-30T07:05:25;5.07;;;4.40;;
17228;SDS011;8731;50.364;8.958;2023-08-30T07:09:47;7.10;;;6.30;;
17228;SDS011;8731;50.364;8.958;2023-08-30T07:14:10;6.47;;;5.87;;
17228;SDS011;8731;50.364;8.958;2023-08-30T07:18:34;7.43;;;6.13;;
17228;SDS011;8731;50.364;8.958;2023-08-30T07:22:58;6.07;;;5.57;;
17228;SDS011;8731;50.364;8.958;2023-08-30T07:27:20;6.30;;;5.47;;
17228;SDS011;8731;50.364;8.958;2023-08-30T07:31:46;8.40;;;5.53;;
17228;SDS011;8731;50.364;8.958;2023-08-30T07:36:11;6.00;;;5.20;;
17228;SDS011;8731;50.364;8.958;2023-08-30T07:40:35;7.43;;;5.83;;
17228;SDS011;8731;50.364;8.958;2023-08-30T07:44:57;6.33;;;5.83;;
17228;SDS011;8731;50.364;8.958;2023-08-30T07:49:20;6.40;;;5.80;;
17228;SDS011;8731;50.364;8.958;2023-08-30T07:53:43;6.63;;;6.03;;
17228;SDS011;8731;50.364;8.958;2023-08-30T07:58:06;6.47;;;5.87;;
17228;SDS011;8731;50.364;8.958;2023-08-30T08:02:30;8.23;;;6.73;;
17228;SDS011;8731;50.364;8.958;2023-08-30T08:06:52;7.63;;;6.87;;
17228;SDS011;8731;50.364;8.958;2023-08-30T08:11:15;7.83;;;7.20;;
17228;SDS011;8731;50.364;8.958;2023-08-30T08:15:39;7.83;;;7.20;;
17228;SDS011;8731;50.364;8.958;2023-08-30T08:20:04;8.60;;;7.70;;
17228;SDS011;8731;50.364;8.958;2023-08-30T08:24:27;8.83;;;8.03;;
17228;SDS011;8731;50.364;8.958;2023-08-30T08:28:50;7.53;;;6.83;;
17228;SDS011;8731;50.364;8.958;2023-08-30T08:33:14;8.23;;;7.20;;
17228;SDS011;8731;50.364;8.958;2023-08-30T08:37:37;8.47;;;7.67;;
17228;SDS011;8731;50.364;8.958;2023-08-30T08:41:59;8.83;;;6.93;;
17228;SDS011;8731;50.364;8.958;2023-08-30T08:46:24;8.90;;;7.87;;
17228;SDS011;8731;50.364;8.958;2023-08-30T08:50:51;8.03;;;7.33;;
17228;SDS011;8731;50.364;8.958;2023-08-30T08:55:14;8.37;;;7.50;;
17228;SDS011;8731;50.364;8.958;2023-08-30T08:59:37;8.10;;;7.30;;
17228;SDS011;8731;50.364;8.958;2023-08-30T09:04:00;7.37;;;6.13;;
17228;SDS011;8731;50.364;8.958;2023-08-30T09:08:27;6.80;;;6.30;;
17228;SDS011;8731;50.364;8.958;2023-08-30T09:12:51;7.57;;;6.87;;
17228;SDS011;8731;50.364;8.958;2023-08-30T09:17:14;8.03;;;6.93;;
17228;SDS011;8731;50.364;8.958;2023-08-30T09:21:36;8.23;;;7.53;;
17228;SDS011;8731;50.364;8.958;2023-08-30T09:26:00;9.57;;;7.17;;
17228;SDS011;8731;50.364;8.958;2023-08-30T09:30:24;7.70;;;7.00;;
17228;SDS011;8731;50.364;8.958;2023-08-30T09:34:46;8.23;;;7.50;;
17228;SDS011;8731;50.364;8.958;2023-08-30T09:39:10;8.00;;;7.30;;
17228;SDS011;8731;50.364;8.958;2023-08-30T09:43:35;7.33;;;6.70;;
17228;SDS011;8731;50.364;8.958;2023-08-30T09:48:03;7.07;;;6.37;;
17228;SDS011;8731;50.364;8.958;2023-08-30T09:52:27;7.50;;;6.80;;
17228;SDS011;8731;50.364;8.958;2023-08-30T09:56:52;7.50;;;6.87;;
17228;SDS011;8731;50.364;8.958;2023-08-30T10:01:19;7.00;;;6.40;;
17228;SDS011;8731;50.364;8.958;2023-08-30T10:05:41;6.63;;;5.90;;
17228;SDS011;8731;50.364;8.958;2023-08-30T10:10:06;6.97;;;6.37;;
17228;SDS011;8731;50.364;8.958;2023-08-30T10:14:29;7.93;;;6.07;;
17228;SDS011;8731;50.364;8.958;2023-08-30T10:18:54;6.07;;;5.47;;
17228;SDS011;8731;50.364;8.958;2023-08-30T10:23:23;6.73;;;5.40;;
17228;SDS011;8731;50.364;8.958;2023-08-30T10:27:52;6.13;;;4.83;;
17228;SDS011;8731;50.364;8.958;2023-08-30T10:32:19;6.47;;;5.83;;
17228;SDS011;8731;50.364;8.958;2023-08-30T10:36:43;5.47;;;4.97;;
17228;SDS011;8731;50.364;8.958;2023-08-30T10:41:06;5.67;;;4.83;;
17228;SDS011;8731;50.364;8.958;2023-08-30T10:45:29;4.90;;;4.50;;
17228;SDS011;8731;50.364;8.958;2023-08-30T10:49:53;4.43;;;4.03;;
17228;SDS011;8731;50.364;8.958;2023-08-30T10:54:17;4.80;;;4.10;;
17228;SDS011;8731;50.364;8.958;2023-08-30T10:58:41;5.63;;;3.43;;
17228;SDS011;8731;50.364;8.958;2023-08-30T11:03:10;4.30;;;3.73;;
17228;SDS011;8731;50.364;8.958;2023-08-30T11:07:36;4.23;;;3.40;;
17228;SDS011;8731;50.364;8.958;2023-08-30T11:12:04;3.63;;;3.33;;
17228;SDS011;8731;50.364;8.958;2023-08-30T11:16:27;3.30;;;3.00;;
17228;SDS011;8731;50.364;8.958;2023-08-30T11:20:53;4.27;;;3.60;;
17228;SDS011;8731;50.364;8.958;2023-08-30T11:25:20;5.13;;;3.00;;
17228;SDS011;8731;50.364;8.958;2023-08-30T11:29:44;3.97;;;2.70;;
17228;SDS011;8731;50.364;8.958;2023-08-30T11:34:07;2.80;;;2.50;;
17228;SDS011;8731;50.364;8.958;2023-08-30T11:38:29;2.63;;;2.30;;
17228;SDS011;8731;50.364;8.958;2023-08-30T11:42:51;2.33;;;2.10;;
17228;SDS011;8731;50.364;8.958;2023-08-30T11:47:19;4.57;;;2.00;;
17228;SDS011;8731;50.364;8.958;2023-08-30T11:51:41;3.37;;;2.50;;
17228;SDS011;8731;50.364;8.958;2023-08-30T11:56:05;3.33;;;2.20;;
17228;SDS011;8731;50.364;8.958;2023-08-30T12:00:28;2.60;;;2.30;;
17228;SDS011;8731;50.364;8.958;2023-08-30T12:04:59;3.30;;;2.43;;
17228;SDS011;8731;50.364;8.958;2023-08-30T12:09:21;2.47;;;2.17;;
17228;SDS011;8731;50.364;8.958;2023-08-30T12:13:44;4.07;;;2.03;;
17228;SDS011;8731;50.364;8.958;2023-08-30T12:18:07;2.83;;;2.20;;
17228;SDS011;8731;50.364;8.958;2023-08-30T12:22:37;3.23;;;2.10;;
17228;SDS011;8731;50.364;8.958;2023-08-30T12:27:02;2.50;;;2.20;;
17228;SDS011;8731;50.364;8.958;2023-08-30T12:31:26;4.27;;;2.90;;
17228;SDS011;8731;50.364;8.958;2023-08-30T12:35:48;3.77;;;2.77;;
17228;SDS011;8731;50.364;8.958;2023-08-30T12:40:13;2.47;;;2.20;;
17228;SDS011;8731;50.364;8.958;2023-08-30T12:44:35;2.50;;;2.30;;
17228;SDS011;8731;50.364;8.958;2023-08-30T12:48:58;4.07;;;2.43;;
17228;SDS011;8731;50.364;8.958;2023-08-30T12:53:22;2.27;;;2.07;;
17228;SDS011;8731;50.364;8.958;2023-08-30T12:57:47;2.90;;;2.50;;
17228;SDS011;8731;50.364;8.958;2023-08-30T13:02:09;2.50;;;2.23;;
17228;SDS011;8731;50.364;8.958;2023-08-30T13:06:32;2.70;;;2.50;;
17228;SDS011;8731;50.364;8.958;2023-08-30T13:10:54;2.80;;;2.47;;
17228;SDS011;8731;50.364;8.958;2023-08-30T13:15:20;2.40;;;2.20;;
17228;SDS011;8731;50.364;8.958;2023-08-30T13:19:42;2.60;;;2.40;;
17228;SDS011;8731;50.364;8.958;2023-08-30T13:24:05;3.00;;;2.50;;
17228;SDS011;8731;50.364;8.958;2023-08-30T13:28:28;3.93;;;2.47;;
17228;SDS011;8731;50.364;8.958;2023-08-30T13:32:52;4.20;;;2.40;;
17228;SDS011;8731;50.364;8.958;2023-08-30T13:37:14;3.53;;;2.80;;
17228;SDS011;8731;50.364;8.958;2023-08-30T13:41:36;4.07;;;2.63;;
17228;SDS011;8731;50.364;8.958;2023-08-30T13:45:59;4.20;;;2.47;;
17228;SDS011;8731;50.364;8.958;2023-08-30T13:50:23;4.40;;;3.07;;
17228;SDS011;8731;50.364;8.958;2023-08-30T13:54:50;3.83;;;3.00;;
17228;SDS011;8731;50.364;8.958;2023-08-30T13:59:12;8.13;;;3.47;;
17228;SDS011;8731;50.364;8.958;2023-08-30T14:03:35;5.73;;;3.33;;
17228;SDS011;8731;50.364;8.958;2023-08-30T14:07:58;6.03;;;3.17;;
17228;SDS011;8731;50.364;8.958;2023-08-30T14:12:21;4.27;;;2.97;;
17228;SDS011;8731;50.364;8.958;2023-08-30T14:16:43;4.80;;;3.30;;
17228;SDS011;8731;50.364;8.958;2023-08-30T14:21:05;3.47;;;2.80;;
17228;SDS011;8731;50.364;8.958;2023-08-30T14:25:29;4.20;;;2.90;;
17228;SDS011;8731;50.364;8.958;2023-08-30T14:29:52;3.77;;;3.00;;
17228;SDS011;8731;50.364;8.958;2023-08-30T14:34:14;3.83;;;2.70;;
17228;SDS011;8731;50.364;8.958;2023-08-30T14:38:37;5.87;;;3.30;;
17228;SDS011;8731;50.364;8.958;2023-08-30T14:43:02;4.87;;;3.40;;
17228;SDS011;8731;50.364;8.958;2023-08-30T14:47:25;4.83;;;3.30;;
17228;SDS011;8731;50.364;8.958;2023-08-30T14:51:48;5.33;;;3.50;;
17228;SDS011;8731;50.364;8.958;2023-08-30T14:56:11;5.53;;;4.03;;
17228;SDS011;8731;50.364;8.958;2023-08-30T15:00:35;3.70;;;3.30;;
17228;SDS011;8731;50.364;8.958;2023-08-30T15:04:57;4.97;;;3.40;;
17228;SDS011;8731;50.364;8.958;2023-08-30T15:09:23;4.27;;;3.30;;
17228;SDS011;8731;50.364;8.958;2023-08-30T15:13:45;8.87;;;3.57;;
17228;SDS011;8731;50.364;8.958;2023-08-30T15:18:09;4.83;;;3.30;;
17228;SDS011;8731;50.364;8.958;2023-08-30T15:22:32;4.87;;;3.13;;
17228;SDS011;8731;50.364;8.958;2023-08-30T15:26:54;4.73;;;3.10;;
17228;SDS011;8731;50.364;8.958;2023-08-30T15:31:17;4.13;;;3.53;;
17228;SDS011;8731;50.364;8.958;2023-08-30T15:35:41;3.97;;;3.13;;
17228;SDS011;8731;50.364;8.958;2023-08-30T15:40:05;6.60;;;3.30;;
17228;SDS011;8731;50.364;8.958;2023-08-30T15:44:29;5.13;;;3.60;;
17228;SDS011;8731;50.364;8.958;2023-08-30T15:48:52;5.60;;;4.63;;
17228;SDS011;8731;50.364;8.958;2023-08-30T15:53:16;5.23;;;3.43;;
17228;SDS011;8731;50.364;8.958;2023-08-30T15:57:39;4.07;;;3.67;;
17228;SDS011;8731;50.364;8.958;2023-08-30T16:02:01;4.10;;;3.37;;
17228;SDS011;8731;50.364;8.958;2023-08-30T16:06:24;4.80;;;3.40;;
17228;SDS011;8731;50.364;8.958;2023-08-30T16:10:52;4.87;;;3.40;;
17228;SDS011;8731;50.364;8.958;2023-08-30T16:15:17;4.47;;;3.27;;
17228;SDS011;8731;50.364;8.958;2023-08-30T16:19:41;3.97;;;3.30;;
17228;SDS011;8731;50.364;8.958;2023-08-30T16:24:03;3.37;;;3.03;;
17228;SDS011;8731;50.364;8.958;2023-08-30T16:28:30;3.80;;;3.13;;
17228;SDS011;8731;50.364;8.958;2023-08-30T16:32:52;4.93;;;3.13;;
17228;SDS011;8731;50.364;8.958;2023-08-30T16:37:15;3.23;;;2.93;;
17228;SDS011;8731;50.364;8.958;2023-08-30T16:41:38;4.10;;;3.10;;
17228;SDS011;8731;50.364;8.958;2023-08-30T16:46:02;4.23;;;2.70;;
17228;SDS011;8731;50.364;8.958;2023-08-30T16:50:24;4.43;;;2.67;;
17228;SDS011;8731;50.364;8.958;2023-08-30T16:54:47;4.87;;;3.03;;
17228;SDS011;8731;50.364;8.958;2023-08-30T16:59:09;8.60;;;4.87;;
17228;SDS011;8731;50.364;8.958;2023-08-30T17:03:33;3.20;;;2.77;;
17228;SDS011;8731;50.364;8.958;2023-08-30T17:07:56;2.70;;;2.50;;
17228;SDS011;8731;50.364;8.958;2023-08-30T17:12:19;2.03;;;1.80;;
17228;SDS011;8731;50.364;8.958;2023-08-30T17:16:42;4.57;;;1.87;;
17228;SDS011;8731;50.364;8.958;2023-08-30T17:21:06;2.33;;;1.80;;
17228;SDS011;8731;50.364;8.958;2023-08-30T17:25:31;5.57;;;1.80;;
17228;SDS011;8731;50.364;8.958;2023-08-30T17:29:54;3.77;;;2.20;;
17228;SDS011;8731;50.364;8.958;2023-08-30T17:34:16;2.50;;;2.10;;
17228;SDS011;8731;50.364;8.958;2023-08-30T17:38:41;5.57;;;2.10;;
17228;SDS011;8731;50.364;8.958;2023-08-30T17:43:05;2.03;;;1.70;;
17228;SDS011;8731;50.364;8.958;2023-08-30T17:47:28;2.53;;;1.70;;
17228;SDS011;8731;50.364;8.958;2023-08-30T17:51:51;1.40;;;1.30;;
17228;SDS011;8731;50.364;8.958;2023-08-30T17:56:15;2.37;;;1.20;;
17228;SDS011;8731;50.364;8.958;2023-08-30T18:00:42;1.60;;;1.07;;
17228;SDS011;8731;50.364;8.958;2023-08-30T18:05:04;4.57;;;1.50;;
17228;SDS011;8731;50.364;8.958;2023-08-30T18:09:28;3.13;;;1.20;;
17228;SDS011;8731;50.364;8.958;2023-08-30T18:13:52;5.10;;;1.40;;
17228;SDS011;8731;50.364;8.958;2023-08-30T18:18:14;2.37;;;1.30;;
17228;SDS011;8731;50.364;8.958;2023-08-30T18:22:37;2.87;;;1.47;;
17228;SDS011;8731;50.364;8.958;2023-08-30T18:26:59;2.40;;;1.30;;
17228;SDS011;8731;50.364;8.958;2023-08-30T18:31:23;2.50;;;1.37;;
17228;SDS011;8731;50.364;8.958;2023-08-30T18:35:46;1.73;;;1.13;;
17228;SDS011;8731;50.364;8.958;2023-08-30T18:40:08;1.87;;;1.17;;
17228;SDS011;8731;50.364;8.958;2023-08-30T18:44:33;1.50;;;1.07;;
17228;SDS011;8731;50.364;8.958;2023-08-30T18:48:58;3.27;;;1.30;;
17228;SDS011;8731;50.364;8.958;2023-08-30T18:53:21;2.67;;;1.30;;
17228;SDS011;8731;50.364;8.958;2023-08-30T18:57:44;1.40;;;1.03;;
17228;SDS011;8731;50.364;8.958;2023-08-30T19:02:06;3.20;;;1.17;;
17228;SDS011;8731;50.364;8.958;2023-08-30T19:06:32;2.27;;;1.60;;
17228;SDS011;8731;50.364;8.958;2023-08-30T19:10:55;1.80;;;1.30;;
17228;SDS011;8731;50.364;8.958;2023-08-30T19:15:17;2.67;;;1.40;;
17228;SDS011;8731;50.364;8.958;2023-08-30T19:19:40;2.27;;;1.40;;
17228;SDS011;8731;50.364;8.958;2023-08-30T19:24:04;2.53;;;1.67;;
17228;SDS011;8731;50.364;8.958;2023-08-30T19:28:27;2.33;;;1.70;;
17228;SDS011;8731;50.364;8.958;2023-08-30T19:32:49;1.53;;;1.43;;
17228;SDS011;8731;50.364;8.958;2023-08-30T19:37:12;3.00;;;1.90;;
17228;SDS011;8731;50.364;8.958;2023-08-30T19:41:37;2.27;;;1.47;;
17228;SDS011;8731;50.364;8.958;2023-08-30T19:46:00;2.80;;;1.50;;
17228;SDS011;8731;50.364;8.958;2023-08-30T19:50:24;3.27;;;1.60;;
17228;SDS011;8731;50.364;8.958;2023-08-30T19:54:46;2.43;;;1.50;;
17228;SDS011;8731;50.364;8.958;2023-08-30T19:59:12;3.33;;;1.43;;
17228;SDS011;8731;50.364;8.958;2023-08-30T20:03:35;2.83;;;1.90;;
17228;SDS011;8731;50.364;8.958;2023-08-30T20:07:58;3.40;;;2.10;;
17228;SDS011;8731;50.364;8.958;2023-08-30T20:12:22;3.63;;;1.90;;
17228;SDS011;8731;50.364;8.958;2023-08-30T20:16:46;3.53;;;2.03;;
17228;SDS011;8731;50.364;8.958;2023-08-30T20:21:11;2.87;;;1.77;;
17228;SDS011;8731;50.364;8.958;2023-08-30T20:25:34;2.40;;;1.70;;
17228;SDS011;8731;50.364;8.958;2023-08-30T20:29:56;2.83;;;1.90;;
17228;SDS011;8731;50.364;8.958;2023-08-30T20:34:20;2.00;;;1.80;;
17228;SDS011;8731;50.364;8.958;2023-08-30T20:38:43;3.33;;;2.20;;
17228;SDS011;8731;50.364;8.958;2023-08-30T20:43:05;2.53;;;2.30;;
17228;SDS011;8731;50.364;8.958;2023-08-30T20:47:28;2.73;;;2.50;;
17228;SDS011;8731;50.364;8.958;2023-08-30T20:51:54;3.70;;;2.70;;
17228;SDS011;8731;50.364;8.958;2023-08-30T20:56:16;2.73;;;2.00;;
17228;SDS011;8731;50.364;8.958;2023-08-30T21:00:39;2.67;;;2.10;;
17228;SDS011;8731;50.364;8.958;2023-08-30T21:05:01;4.47;;;2.43;;
17228;SDS011;8731;50.364;8.958;2023-08-30T21:09:26;3.17;;;2.80;;
17228;SDS011;8731;50.364;8.958;2023-08-30T21:13:48;4.03;;;2.70;;
17228;SDS011;8731;50.364;8.958;2023-08-30T21:18:11;2.87;;;2.30;;
17228;SDS011;8731;50.364;8.958;2023-08-30T21:22:33;3.53;;;2.50;;
17228;SDS011;8731;50.364;8.958;2023-08-30T21:26:58;4.10;;;2.60;;
17228;SDS011;8731;50.364;8.958;2023-08-30T21:31:21;4.33;;;2.33;;
17228;SDS011;8731;50.364;8.958;2023-08-30T21:35:45;3.73;;;2.50;;
17228;SDS011;8731;50.364;8.958;2023-08-30T21:40:08;4.20;;;2.70;;
17228;SDS011;8731;50.364;8.958;2023-08-30T21:44:33;3.73;;;2.70;;
17228;SDS011;8731;50.364;8.958;2023-08-30T21:48:55;3.23;;;2.83;;
17228;SDS011;8731;50.364;8.958;2023-08-30T21:53:18;3.07;;;2.77;;
17228;SDS011;8731;50.364;8.958;2023-08-30T21:57:40;4.70;;;3.07;;
17228;SDS011;8731;50.364;8.958;2023-08-30T22:02:04;4.30;;;3.30;;
17228;SDS011;8731;50.364;8.958;2023-08-30T22:06:27;4.00;;;2.80;;
17228;SDS011;8731;50.364;8.958;2023-08-30T22:10:51;4.30;;;3.50;;
17228;SDS011;8731;50.364;8.958;2023-08-30T22:15:14;5.57;;;3.20;;
17228;SDS011;8731;50.364;8.958;2023-08-30T22:19:39;5.13;;;3.47;;
17228;SDS011;8731;50.364;8.958;2023-08-30T22:24:01;5.73;;;3.90;;
17228;SDS011;8731;50.364;8.958;2023-08-30T22:28:24;4.40;;;3.30;;
17228;SDS011;8731;50.364;8.958;2023-08-30T22:32:46;5.27;;;3.57;;
17228;SDS011;8731;50.364;8.958;2023-08-30T22:37:10;6.53;;;3.60;;
17228;SDS011;8731;50.364;8.958;2023-08-30T22:41:32;3.47;;;3.17;;
17228;SDS011;8731;50.364;8.958;2023-08-30T22:45:58;4.43;;;3.37;;
17228;SDS011;8731;50.364;8.958;2023-08-30T22:50:21;3.93;;;3.10;;
17228;SDS011;8731;50.364;8.958;2023-08-30T22:54:45;3.87;;;3.50;;
17228;SDS011;8731;50.364;8.958;2023-08-30T22:59:08;6.27;;;3.20;;
17228;SDS011;8731;50.364;8.958;2023-08-30T23:03:30;4.13;;;3.50;;
17228;SDS011;8731;50.364;8.958;2023-08-30T23:07:53;5.43;;;3.80;;
17228;SDS011;8731;50.364;8.958;2023-08-30T23:12:20;7.87;;;3.40;;
17228;SDS011;8731;50.364;8.958;2023-08-30T23:16:43;6.50;;;3.50;;
17228;SDS011;8731;50.364;8.958;2023-08-30T23:21:11;5.83;;;3.83;;
17228;SDS011;8731;50.364;8.958;2023-08-30T23:25:37;4.83;;;3.70;;
17228;SDS011;8731;50.364;8.958;2023-08-30T23:30:01;4.97;;;3.57;;
17228;SDS011;8731;50.364;8.958;2023-08-30T23:34:28;3.97;;;3.20;;
17228;SDS011;8731;50.364;8.958;2023-08-30T23:38:50;3.57;;;3.27;;
17228;SDS011;8731;50.364;8.958;2023-08-30T23:43:15;3.80;;;3.50;;
17228;SDS011;8731;50.364;8.958;2023-08-30T23:47:40;4.57;;;4.10;;
17228;SDS011;8731;50.364;8.958;2023-08-30T23:52:03;4.90;;;4.40;;
17228;SDS011;8731;50.364;8.958;2023-08-30T23:56:25;4.23;;;3.73;;
